Time;durP1;ratioP1;P1;durP2;ratioP2;P2;SDS_P1;SDS_P2;PMS_P1;PMS_P2;Temp;Humidity;BMP_temperature;BMP_pressure;BME280_temperature;BME280_humidity;BME280_pressure;Samples;Min_cycle;Max_cycle;Signal;HPM_P1;HPM_P2
2022/01/15 00:01:05;;;;;;;8.13;5.15;;;;;;;;;;5052034;28;20492;-48
2022/01/15 00:03:31;;;;;;;7.03;5.03;;;;;;;;;;5051847;28;20129;-49
2022/01/15 00:05:58;;;;;;;8.52;5.10;;;;;;;;;;5052072;28;20029;-49
2022/01/15 00:08:24;;;;;;;7.63;5.07;;;16.10;91.70;;;;;;5051989;28;20025;-49
2022/01/15 00:10:50;;;;;;;7.05;4.85;;;;;;;;;;5051904;28;20029;-48
2022/01/15 00:13:29;;;;;;;6.22;4.60;;;;;;;;;;5051889;28;20471;-48
2022/01/15 00:16:08;;;;;;;7.68;5.03;;;;;;;;;;5051956;28;20036;-47
2022/01/15 00:18:47;;;;;;;7.72;5.40;;;;;;;;;;5051884;28;20037;-50
2022/01/15 00:21:13;;;;;;;8.15;5.60;;;;;;;;;;5052262;28;20100;-48
2022/01/15 00:23:40;;;;;;;7.40;4.93;;;;;;;;;;5051988;28;20369;-48
2022/01/15 00:26:06;;;;;;;7.43;5.35;;;;;;;;;;5051898;28;20291;-48
2022/01/15 00:28:32;;;;;;;7.85;5.30;;;;;;;;;;5051850;28;20713;-48
2022/01/15 00:30:58;;;;;;;6.60;5.03;;;;;;;;;;5052128;28;20048;-49
2022/01/15 00:33:25;;;;;;;7.07;5.28;;;;;;;;;;5051741;28;20032;-48
2022/01/15 00:35:52;;;;;;;7.78;4.97;;;;;;;;;;5051758;28;20048;-48
2022/01/15 00:38:18;;;;;;;6.53;5.47;;;;;;;;;;5051670;28;20029;-49
2022/01/15 00:40:44;;;;;;;7.32;4.93;;;;;;;;;;5052017;28;20112;-49
2022/01/15 00:43:10;;;;;;;7.30;5.07;;;;;;;;;;5051637;28;20021;-49
2022/01/15 00:45:36;;;;;;;7.90;5.78;;;;;;;;;;5051652;28;20115;-49
2022/01/15 00:48:02;;;;;;;7.30;5.22;;;;;;;;;;5053080;28;20029;-49
2022/01/15 00:50:29;;;;;;;6.32;4.60;;;;;;;;;;5055341;28;20040;-49
2022/01/15 00:52:54;;;;;;;8.27;4.82;;;;;;;;;;5055623;28;20028;-49
2022/01/15 00:55:21;;;;;;;9.05;5.78;;;15.90;91.80;;;;;;5055310;28;20056;-49
2022/01/15 00:57:47;;;;;;;5.93;4.82;;;;;;;;;;5055244;28;20155;-49
2022/01/15 01:00:20;;;;;;;7.82;5.32;;;15.80;91.80;;;;;;5055300;28;20029;-49
2022/01/15 01:02:46;;;;;;;10.45;5.45;;;;;;;;;;5055123;28;20243;-49
2022/01/15 01:05:12;;;;;;;8.90;5.40;;;;;;;;;;5053840;28;20556;-49
2022/01/15 01:07:38;;;;;;;6.10;4.80;;;;;;;;;;5055060;28;20464;-49
2022/01/15 01:23:08;;;;;;;6.68;5.13;;;;;;;;;;5055129;28;20040;-49
2022/01/15 01:25:42;;;;;;;6.50;4.70;;;;;;;;;;5054728;28;20025;-49
2022/01/15 01:28:14;;;;;;;6.95;5.28;;;;;;;;;;5054952;28;20063;-49
2022/01/15 01:30:53;;;;;;;5.80;4.65;;;;;;;;;;5054835;28;20025;-49
2022/01/15 01:36:01;;;;;;;7.43;5.18;;;;;;;;;;5054591;28;20394;-49
2022/01/15 01:38:35;;;;;;;7.20;5.15;;;;;;;;;;5054752;28;20025;-49
2022/01/15 01:41:02;;;;;;;7.03;5.25;;;;;;;;;;5054448;28;20515;-50
2022/01/15 01:46:20;;;;;;;8.32;5.10;;;;;;;;;;5054734;28;20036;-50
2022/01/15 01:48:47;;;;;;;7.75;4.80;;;15.30;89.20;;;;;;5054539;28;20484;-50
2022/01/15 01:51:39;;;;;;;6.93;4.63;;;15.60;90.90;;;;;;5054281;28;20392;-49
2022/01/15 01:54:07;;;;;;;7.40;5.03;;;15.60;91.00;;;;;;5054507;28;20040;-49
2022/01/15 01:56:34;;;;;;;7.30;4.88;;;15.60;88.60;;;;;;5054137;28;20032;-49
2022/01/15 01:59:00;;;;;;;6.43;4.28;;;;;;;;;;5054013;28;20043;-49
2022/01/15 02:01:26;;;;;;;6.57;4.97;;;;;;;;;;5053971;28;20032;-48
2022/01/15 02:03:53;;;;;;;5.60;3.80;;;15.50;90.90;;;;;;5053872;28;20415;-48
2022/01/15 02:06:20;;;;;;;6.05;4.88;;;;;;;;;;5053939;28;20099;-49
2022/01/15 02:08:47;;;;;;;6.78;4.70;;;15.50;91.00;;;;;;5053902;28;20399;-51
2022/01/15 02:11:13;;;;;;;6.40;4.38;;;;;;;;;;5053988;28;20017;-50
2022/01/15 02:13:42;;;;;;;5.90;4.13;;;15.60;91.00;;;;;;5054110;28;20028;-49
2022/01/15 02:16:08;;;;;;;6.03;4.25;;;;;;;;;;5054064;28;20438;-49
2022/01/15 02:18:35;;;;;;;6.28;4.78;;;;;;;;;;5053701;28;20420;-49
2022/01/15 02:23:36;;;;;;;6.28;4.85;;;;;;;;;;5053957;28;20035;-51
2022/01/15 02:26:04;;;;;;;5.93;3.92;;;15.40;91.10;;;;;;5053580;28;20094;-49
2022/01/15 02:28:35;;;;;;;6.15;4.40;;;15.40;91.10;;;;;;5053614;28;20036;-49
2022/01/15 02:31:02;;;;;;;;;;;15.40;91.40;;;;;;5054454;28;20025;-50
2022/01/15 02:33:28;;;;;;;6.72;4.68;;;;;;;;;;5053455;28;19904;-49
2022/01/15 02:35:54;;;;;;;5.88;4.55;;;;;;;;;;5053428;28;20031;-49
2022/01/15 02:38:20;;;;;;;6.30;4.80;;;;;;;;;;5053350;28;20040;-48
2022/01/15 02:40:46;;;;;;;6.55;4.60;;;;;;;;;;5053287;28;20360;-49
2022/01/15 02:43:18;;;;;;;5.32;4.18;;;15.40;91.10;;;;;;5053292;28;20079;-49
2022/01/15 02:45:46;;;;;;;6.20;4.43;;;;;;;;;;5053436;28;20371;-48
2022/01/15 02:48:16;;;;;;;5.80;4.38;;;15.40;91.10;;;;;;5053207;28;20178;-47
2022/01/15 02:50:44;;;;;;;6.22;4.28;;;15.30;91.10;;;;;;5053136;28;20033;-48
2022/01/15 02:53:12;;;;;;;5.28;3.90;;;15.40;91.20;;;;;;5052911;28;20032;-49
2022/01/15 02:55:42;;;;;;;7.00;4.20;;;15.40;86.40;;;;;;5052847;28;20073;-48
2022/01/15 02:58:08;;;;;;;4.57;3.83;;;;;;;;;;5053017;28;20043;-48
2022/01/15 03:00:34;;;;;;;6.47;4.63;;;;;;;;;;5052797;28;20021;-48
2022/01/15 03:03:00;;;;;;;6.38;4.53;;;;;;;;;;5052507;28;20503;-50
2022/01/15 03:05:26;;;;;;;6.15;4.50;;;;;;;;;;5052700;28;20037;-47
2022/01/15 03:07:52;;;;;;;6.13;4.43;;;;;;;;;;5052872;28;20033;-48
2022/01/15 03:10:18;;;;;;;5.82;4.47;;;;;;;;;;5052386;28;20068;-49
2022/01/15 03:12:44;;;;;;;6.18;4.50;;;;;;;;;;5052750;28;20060;-49
2022/01/15 03:15:13;;;;;;;5.78;4.07;;;15.00;89.00;;;;;;5052703;28;20391;-49
2022/01/15 03:17:39;;;;;;;4.95;4.03;;;;;;;;;;5052879;28;20029;-50
2022/01/15 03:20:06;;;;;;;5.95;4.13;;;;;;;;;;5052610;28;20376;-48
2022/01/15 03:22:32;;;;;;;6.07;4.60;;;;;;;;;;5052571;28;20021;-48
2022/01/15 03:24:58;;;;;;;6.03;4.60;;;;;;;;;;5052554;28;20044;-49
2022/01/15 03:27:24;;;;;;;5.82;4.22;;;;;;;;;;5052553;28;20495;-49
2022/01/15 03:29:53;;;;;;;6.03;4.10;;;15.20;86.40;;;;;;5052474;28;20025;-51
2022/01/15 03:32:20;;;;;;;5.80;4.38;;;;;;;;;;5052401;28;20102;-50
2022/01/15 03:34:46;;;;;;;4.93;4.05;;;;;;;;;;5052400;28;20074;-49
2022/01/15 03:37:12;;;;;;;5.35;3.95;;;;;;;;;;5052364;28;20283;-49
2022/01/15 03:39:38;;;;;;;6.28;4.55;;;;;;;;;;5052287;28;20318;-49
2022/01/15 03:42:04;;;;;;;6.25;4.45;;;;;;;;;;5052206;28;20131;-49
2022/01/15 03:44:30;;;;;;;6.05;4.22;;;;;;;;;;5052317;28;20075;-49
2022/01/15 03:46:56;;;;;;;6.35;4.30;;;;;;;;;;5052198;28;20104;-49
2022/01/15 03:49:22;;;;;;;5.47;3.88;;;;;;;;;;5052180;28;20061;-48
2022/01/15 03:51:48;;;;;;;5.88;3.97;;;;;;;;;;5052434;28;20043;-50
2022/01/15 03:54:14;;;;;;;5.95;4.18;;;;;;;;;;5052086;28;20021;-49
2022/01/15 03:56:40;;;;;;;5.60;3.63;;;;;;;;;;5052115;28;20029;-48
2022/01/15 03:59:06;;;;;;;6.18;3.95;;;;;;;;;;5052241;28;20029;-47
2022/01/15 04:01:32;;;;;;;6.25;4.32;;;;;;;;;;5052024;28;20025;-48
2022/01/15 04:03:58;;;;;;;4.65;4.13;;;;;;;;;;5051971;28;20052;-48
2022/01/15 04:06:24;;;;;;;5.55;3.88;;;;;;;;;;5051989;28;20029;-48
2022/01/15 04:08:50;;;;;;;5.47;4.45;;;;;;;;;;5052031;28;20029;-48
2022/01/15 04:11:16;;;;;;;5.43;3.85;;;;;;;;;;5051918;28;20032;-50
2022/01/15 04:13:42;;;;;;;5.95;4.35;;;;;;;;;;5051962;28;20116;-50
2022/01/15 04:16:08;;;;;;;5.25;4.03;;;;;;;;;;5052205;28;20025;-49
2022/01/15 04:18:40;;;;;;;6.15;4.03;;;;;;;;;;5051917;28;20033;-49
2022/01/15 04:21:09;;;;;;;4.55;3.60;;;;;;;;;;5052007;28;20115;-49
2022/01/15 04:23:35;;;;;;;5.78;3.90;;;;;;;;;;5054078;28;20536;-49
2022/01/15 04:26:01;;;;;;;5.00;3.97;;;;;;;;;;5056388;28;20021;-49
2022/01/15 04:28:28;;;;;;;5.28;4.00;;;;;;;;;;5056090;28;20035;-48
2022/01/15 04:30:54;;;;;;;6.97;4.47;;;;;;;;;;5056041;28;20029;-48
2022/01/15 04:33:20;;;;;;;5.32;3.72;;;;;;;;;;5055916;28;20070;-49
2022/01/15 04:35:46;;;;;;;5.32;3.97;;;;;;;;;;5055765;28;20021;-48
2022/01/15 04:38:13;;;;;;;5.30;3.92;;;;;;;;;;5055832;28;20028;-47
2022/01/15 04:40:39;;;;;;;4.82;3.33;;;;;;;;;;5055643;28;20159;-48
2022/01/15 04:43:05;;;;;;;5.38;3.97;;;;;;;;;;5055530;28;20099;-48
2022/01/15 04:45:31;;;;;;;5.88;3.85;;;;;;;;;;5055506;28;20025;-49
2022/01/15 04:47:57;;;;;;;5.85;4.25;;;;;;;;;;5055441;28;20035;-48
2022/01/15 04:50:23;;;;;;;6.40;3.90;;;;;;;;;;5055390;28;20490;-50
2022/01/15 04:52:49;;;;;;;6.05;4.18;;;;;;;;;;5055370;28;20060;-49
2022/01/15 04:55:15;;;;;;;6.28;4.15;;;;;;;;;;5055281;28;20036;-49
2022/01/15 04:57:42;;;;;;;5.57;4.00;;;;;;;;;;5055452;28;20024;-48
2022/01/15 05:00:11;;;;;;;5.85;4.13;;;14.90;91.00;;;;;;5055281;28;20033;-48
2022/01/15 05:02:37;;;;;;;5.82;3.83;;;;;;;;;;5054873;28;20103;-48
2022/01/15 05:05:04;;;;;;;7.20;4.40;;;;;;;;;;5055184;28;20395;-49
2022/01/15 05:07:30;;;;;;;6.32;4.35;;;;;;;;;;5055117;28;20105;-49
2022/01/15 05:09:56;;;;;;;6.32;4.47;;;;;;;;;;5055133;28;20036;-49
2022/01/15 05:12:39;;;;;;;6.15;4.15;;;;;;;;;;5055040;28;20392;-49
2022/01/15 05:15:05;;;;;;;6.47;4.53;;;;;;;;;;5055323;28;20049;-50
2022/01/15 05:17:31;;;;;;;5.45;4.07;;;;;;;;;;5055037;28;20033;-48
2022/01/15 05:19:57;;;;;;;6.25;4.68;;;;;;;;;;5054869;28;20033;-49
2022/01/15 05:22:23;;;;;;;5.28;3.80;;;;;;;;;;5054804;28;20021;-49
2022/01/15 05:24:49;;;;;;;4.88;4.22;;;;;;;;;;5054833;28;20502;-50
2022/01/15 05:27:15;;;;;;;5.15;4.00;;;;;;;;;;5054691;28;20029;-49
2022/01/15 05:29:41;;;;;;;6.22;4.45;;;;;;;;;;5054730;28;20024;-51
2022/01/15 05:32:07;;;;;;;5.65;4.10;;;;;;;;;;5054675;28;20029;-48
2022/01/15 05:34:33;;;;;;;5.15;3.97;;;;;;;;;;5054255;28;20040;-50
2022/01/15 05:36:59;;;;;;;6.05;3.78;;;;;;;;;;5054624;28;20435;-49
2022/01/15 05:39:25;;;;;;;6.72;4.72;;;;;;;;;;5054606;28;20125;-49
2022/01/15 05:41:51;;;;;;;6.47;4.72;;;;;;;;;;5054474;28;20052;-47
2022/01/15 05:44:17;;;;;;;5.63;4.53;;;;;;;;;;5054417;28;20035;-50
2022/01/15 05:46:45;;;;;;;5.70;4.35;;;;;;;;;;5054342;28;20031;-50
2022/01/15 05:49:11;;;;;;;5.20;4.18;;;;;;;;;;5054312;28;20031;-51
2022/01/15 05:51:37;;;;;;;6.25;4.55;;;;;;;;;;5054498;28;20025;-49
2022/01/15 05:54:03;;;;;;;6.68;4.38;;;14.70;91.20;;;;;;5054304;28;20048;-49
2022/01/15 05:56:30;;;;;;;7.07;4.72;;;;;;;;;;5054169;28;20036;-49
2022/01/15 05:58:56;;;;;;;5.88;4.07;;;;;;;;;;5054072;28;20110;-49
2022/01/15 06:01:22;;;;;;;6.85;4.63;;;;;;;;;;5054035;28;20419;-48
2022/01/15 06:03:48;;;;;;;5.18;3.67;;;;;;;;;;5053928;28;20055;-49
2022/01/15 06:06:14;;;;;;;6.15;4.40;;;;;;;;;;5053997;28;20025;-49
2022/01/15 06:08:40;;;;;;;6.82;5.00;;;;;;;;;;5053941;28;20033;-49
2022/01/15 06:11:06;;;;;;;6.43;4.97;;;;;;;;;;5053936;28;20025;-48
2022/01/15 06:13:32;;;;;;;6.60;4.68;;;;;;;;;;5054134;28;20044;-49
2022/01/15 06:15:58;;;;;;;5.53;4.38;;;;;;;;;;5053842;28;20084;-48
2022/01/15 06:18:24;;;;;;;5.95;4.50;;;;;;;;;;5054129;28;20041;-49
2022/01/15 06:20:50;;;;;;;6.28;4.20;;;;;;;;;;5053657;28;20069;-48
2022/01/15 06:23:16;;;;;;;5.40;4.28;;;;;;;;;;5053711;28;20073;-49
2022/01/15 06:25:42;;;;;;;5.32;3.80;;;;;;;;;;5053642;28;20029;-49
2022/01/15 06:28:08;;;;;;;6.25;4.30;;;;;;;;;;5053509;28;20024;-48
2022/01/15 06:30:34;;;;;;;6.88;4.40;;;;;;;;;;5053624;28;20063;-49
2022/01/15 06:33:00;;;;;;;6.05;4.30;;;;;;;;;;5053495;28;20028;-48
2022/01/15 06:35:26;;;;;;;4.40;3.83;;;;;;;;;;5053417;28;20539;-48
2022/01/15 06:37:52;;;;;;;4.72;3.78;;;;;;;;;;5053221;28;20515;-48
2022/01/15 06:40:18;;;;;;;5.32;4.30;;;;;;;;;;5053228;28;20643;-48
2022/01/15 06:42:44;;;;;;;5.65;4.28;;;;;;;;;;5053143;28;20080;-48
2022/01/15 06:45:10;;;;;;;6.07;4.78;;;;;;;;;;5052519;28;20057;-48
2022/01/15 06:47:36;;;;;;;4.95;3.95;;;;;;;;;;5052911;28;20329;-51
2022/01/15 06:50:05;;;;;;;5.38;3.92;;;15.90;90.60;;;;;;5053160;28;20029;-49
2022/01/15 06:52:35;;;;;;;4.93;3.70;;;16.00;85.00;;;;;;5053295;28;20037;-48
2022/01/15 06:55:01;;;;;;;5.40;4.10;;;;;;;;;;5052933;28;20044;-48
2022/01/15 06:57:27;;;;;;;5.57;4.43;;;;;;;;;;5053329;28;20384;-48
2022/01/15 06:59:53;;;;;;;5.25;4.45;;;;;;;;;;5053070;28;20044;-48
2022/01/15 07:02:19;;;;;;;5.95;4.32;;;;;;;;;;5052846;28;20478;-50
2022/01/15 07:04:45;;;;;;;5.60;4.10;;;;;;;;;;5052849;28;20068;-49
2022/01/15 07:07:11;;;;;;;6.25;4.40;;;;;;;;;;5052882;28;20032;-48
2022/01/15 07:09:37;;;;;;;7.43;4.93;;;;;;;;;;5052807;28;20040;-49
2022/01/15 07:12:04;;;;;;;6.82;4.70;;;;;;;;;;5052764;28;20094;-48
2022/01/15 07:14:30;;;;;;;6.45;4.75;;;;;;;;;;5052685;28;20025;-49
2022/01/15 07:16:56;;;;;;;7.25;4.68;;;;;;;;;;5052649;28;20025;-49
2022/01/15 07:19:22;;;;;;;6.80;5.10;;;;;;;;;;5052528;28;20037;-49
2022/01/15 07:21:48;;;;;;;6.45;4.47;;;;;;;;;;5052568;28;20364;-50
2022/01/15 07:24:16;;;;;;;6.80;5.22;;;;;;;;;;5052648;28;20025;-48
2022/01/15 07:26:42;;;;;;;7.45;5.05;;;;;;;;;;5052553;28;20021;-48
2022/01/15 07:29:15;;;;;;;8.18;5.75;;;;;;;;;;5052398;28;20575;-49
2022/01/15 07:31:44;;;;;;;7.57;4.95;;;15.90;89.60;;;;;;5052753;28;20021;-49
2022/01/15 07:34:10;;;;;;;8.25;5.97;;;;;;;;;;5052589;28;20021;-49
2022/01/15 07:36:36;;;;;;;7.18;5.22;;;;;;;;;;5052348;28;20483;-50
2022/01/15 07:39:04;;;;;;;7.18;5.13;;;15.90;91.00;;;;;;5052259;28;20090;-50
2022/01/15 07:41:30;;;;;;;9.02;6.15;;;;;;;;;;5052282;28;20029;-49
2022/01/15 07:43:56;;;;;;;7.15;5.50;;;;;;;;;;5052320;28;20064;-49
2022/01/15 07:46:22;;;;;;;8.45;5.60;;;;;;;;;;5052164;28;20055;-48
2022/01/15 07:48:48;;;;;;;7.85;5.63;;;;;;;;;;5052248;28;20540;-48
2022/01/15 07:51:14;;;;;;;9.20;6.47;;;;;;;;;;5052177;28;20108;-48
2022/01/15 07:53:40;;;;;;;8.15;5.97;;;;;;;;;;5052132;28;20103;-49
2022/01/15 07:56:06;;;;;;;8.93;6.10;;;;;;;;;;5052047;28;20028;-49
2022/01/15 07:58:32;;;;;;;9.55;6.10;;;;;;;;;;5051934;28;20045;-50
2022/01/15 08:00:58;;;;;;;10.02;6.63;;;;;;;;;;5052105;28;20029;-48
2022/01/15 08:03:24;;;;;;;7.97;6.28;;;;;;;;;;5051851;28;20051;-49
2022/01/15 08:05:50;;;;;;;10.23;6.82;;;;;;;;;;5052108;28;20025;-48
2022/01/15 08:08:16;;;;;;;11.30;7.25;;;;;;;;;;5051965;28;20086;-50
2022/01/15 08:10:42;;;;;;;10.73;7.25;;;15.40;89.40;;;;;;5052016;28;20112;-50
2022/01/15 08:13:09;;;;;;;10.50;6.88;;;;;;;;;;5051857;28;20017;-53
2022/01/15 08:15:35;;;;;;;10.48;6.82;;;;;;;;;;5051917;28;20029;-53
2022/01/15 08:18:01;;;;;;;9.77;6.97;;;;;;;;;;5052068;28;20102;-50
2022/01/15 08:20:27;;;;;;;11.73;7.72;;;;;;;;;;5052276;28;20028;-49
2022/01/15 08:22:53;;;;;;;11.02;7.85;;;;;;;;;;5052151;28;20033;-49
2022/01/15 08:25:19;;;;;;;11.00;7.35;;;;;;;;;;5051870;28;20025;-49
2022/01/15 08:27:46;;;;;;;11.55;7.63;;;;;;;;;;5052122;28;20037;-49
2022/01/15 08:30:12;;;;;;;11.02;7.55;;;;;;;;;;5052018;28;20029;-48
2022/01/15 08:32:38;;;;;;;10.90;6.93;;;;;;;;;;5051796;28;20131;-49
2022/01/15 08:35:06;;;;;;;10.02;7.32;;;15.10;89.50;;;;;;5052046;28;20025;-49
2022/01/15 08:37:32;;;;;;;10.63;7.13;;;;;;;;;;5051794;28;20063;-49
2022/01/15 08:39:58;;;;;;;13.18;7.68;;;;;;;;;;5051735;28;20036;-49
2022/01/15 08:42:24;;;;;;;12.07;8.20;;;;;;;;;;5051726;28;20025;-49
2022/01/15 08:44:52;;;;;;;9.13;6.47;;;;;;;;;;5051730;28;20043;-49
2022/01/15 08:47:18;;;;;;;37.35;7.90;;;;;;;;;;5051883;28;20051;-49
2022/01/15 08:49:44;;;;;;;10.60;7.63;;;;;;;;;;5051909;28;20377;-49
2022/01/15 08:52:10;;;;;;;14.93;7.15;;;;;;;;;;5051599;28;20167;-49
2022/01/15 08:54:36;;;;;;;15.43;7.78;;;;;;;;;;5051581;28;20112;-48
2022/01/15 08:57:02;;;;;;;11.60;6.53;;;;;;;;;;5051511;28;20122;-49
2022/01/15 08:59:28;;;;;;;14.95;7.50;;;;;;;;;;5051320;28;20037;-49
2022/01/15 09:01:59;;;;;;;18.05;7.25;;;15.80;90.70;;;;;;5051099;28;20028;-48
2022/01/15 09:04:26;;;;;;;18.75;7.75;;;;;;;;;;5051597;28;20083;-49
2022/01/15 09:06:52;;;;;;;10.05;7.05;;;;;;;;;;5051473;28;20025;-49
2022/01/15 09:09:18;;;;;;;11.55;7.07;;;16.30;87.50;;;;;;5052972;28;20479;-49
2022/01/15 09:11:44;;;;;;;18.70;7.35;;;16.20;90.00;;;;;;5055043;28;20029;-49
2022/01/15 09:14:11;;;;;;;14.52;7.53;;;;;;;;;;5054823;28;20052;-49
2022/01/15 09:16:37;;;;;;;10.80;6.80;;;;;;;;;;5054905;28;20444;-47
2022/01/15 09:19:03;;;;;;;10.50;6.88;;;;;;;;;;5054833;28;20041;-47
2022/01/15 09:21:29;;;;;;;13.98;7.32;;;;;;;;;;5054898;28;20025;-45
2022/01/15 09:23:55;;;;;;;12.55;7.68;;;;;;;;;;5055065;28;20115;-46
2022/01/15 09:26:34;;;;;;;14.57;6.70;;;;;;;;;;5054788;28;20067;-48
2022/01/15 09:31:45;;;;;;;10.75;7.28;;;;;;;;;;5054767;28;20399;-47
2022/01/15 09:34:11;;;;;;;13.70;6.72;;;;;;;;;;5054725;28;20032;-50
2022/01/15 09:36:37;;;;;;;11.77;7.35;;;;;;;;;;5054438;28;20102;-50
2022/01/15 09:39:03;;;;;;;12.82;7.07;;;;;;;;;;5054275;28;20032;-49
2022/01/15 09:41:29;;;;;;;13.00;7.57;;;;;;;;;;5054327;28;20399;-49
2022/01/15 09:43:55;;;;;;;14.55;7.15;;;17.10;88.00;;;;;;5054290;28;20040;-48
2022/01/15 09:46:22;;;;;;;9.93;6.55;;;;;;;;;;5054131;28;20030;-47
2022/01/15 09:48:48;;;;;;;10.82;6.75;;;17.00;85.80;;;;;;5054392;28;20029;-50
2022/01/15 09:51:14;;;;;;;12.20;7.25;;;;;;;;;;5054145;28;20385;-47
2022/01/15 09:53:41;;;;;;;11.38;6.90;;;17.10;87.70;;;;;;5054167;28;20031;-49
2022/01/15 09:56:07;;;;;;;11.73;7.45;;;;;;;;;;5054005;28;20435;-49
2022/01/15 09:58:33;;;;;;;10.63;7.22;;;;;;;;;;5053892;28;20043;-48
2022/01/15 10:00:59;;;;;;;10.73;7.05;;;;;;;;;;5054022;28;20036;-50
2022/01/15 10:03:25;;;;;;;12.07;7.47;;;;;;;;;;5053788;28;20060;-50
2022/01/15 10:05:51;;;;;;;10.57;7.82;;;;;;;;;;5053986;28;20033;-47
2022/01/15 10:08:19;;;;;;;10.20;7.47;;;;;;;;;;5053849;28;20029;-49
2022/01/15 10:10:50;;;;;;;11.73;7.65;;;16.90;81.30;;;;;;5053833;28;20028;-50
2022/01/15 10:13:21;;;;;;;11.23;7.18;;;17.00;81.40;;;;;;5053815;28;20059;-50
2022/01/15 10:16:08;;;;;;;9.25;7.15;;;17.30;87.80;;;;;;5052307;28;20475;-50
2022/01/15 10:18:42;;;;;;;9.57;7.07;;;17.00;87.10;;;;;;5053419;28;20040;-49
2022/01/15 10:21:16;;;;;;;10.57;7.55;;;;;;;;;;5052774;28;20044;-50
2022/01/15 10:23:53;;;;;;;13.35;7.82;;;16.90;81.60;;;;;;5053541;28;20025;-49
2022/01/15 10:26:21;;;;;;;9.52;7.20;;;16.90;88.10;;;;;;5053923;28;20033;-49
2022/01/15 10:28:48;;;;;;;9.07;6.93;;;;;;;;;;5053457;28;20395;-50
2022/01/15 10:31:24;;;;;;;9.75;7.32;;;16.70;81.30;;;;;;5053435;28;20036;-49
2022/01/15 10:33:50;;;;;;;11.48;8.00;;;;;;;;;;5053400;28;20037;-48
2022/01/15 10:36:29;;;;;;;10.32;7.40;;;16.80;81.70;;;;;;5053261;28;20036;-48
2022/01/15 10:39:15;;;;;;;9.10;6.68;;;16.80;88.10;;;;;;5053187;28;20122;-49
2022/01/15 10:41:41;;;;;;;10.48;7.00;;;;;;;;;;5053163;28;20111;-47
2022/01/15 10:44:28;;;;;;;11.07;6.80;;;16.70;81.70;;;;;;5053398;28;20057;-46
2022/01/15 10:47:08;;;;;;;9.60;7.43;;;16.90;89.00;;;;;;5051804;28;20101;-46
2022/01/15 10:49:35;;;;;;;10.18;7.07;;;16.80;87.30;;;;;;5053444;28;20032;-50
2022/01/15 10:52:08;;;;;;;11.27;7.43;;;16.80;84.70;;;;;;5053056;28;20099;-49
2022/01/15 10:54:35;;;;;;;10.45;7.47;;;16.90;90.30;;;;;;5052955;28;20574;-49
2022/01/15 10:57:10;;;;;;;10.45;7.55;;;16.90;86.90;;;;;;5053161;28;20426;-48
2022/01/15 10:59:36;;;;;;;12.07;7.90;;;16.90;91.20;;;;;;5052698;28;20554;-51
2022/01/15 11:02:18;;;;;;;11.07;7.80;;;16.80;89.50;;;;;;5052633;28;20091;-49
2022/01/15 11:04:44;;;;;;;10.38;7.38;;;;;;;;;;5052831;28;20025;-48
2022/01/15 11:07:11;;;;;;;9.05;6.53;;;16.80;93.20;;;;;;5052762;28;20021;-48
2022/01/15 11:09:37;;;;;;;9.38;7.43;;;;;;;;;;5053054;28;20078;-49
2022/01/15 11:12:05;;;;;;;9.85;7.40;;;;;;;;;;5052685;28;20040;-49
2022/01/15 11:14:31;;;;;;;8.65;6.65;;;;;;;;;;5052658;28;20484;-47
2022/01/15 11:16:59;;;;;;;8.75;7.07;;;;;;;;;;5052983;28;20142;-47
2022/01/15 11:19:27;;;;;;;10.55;7.63;;;16.80;92.50;;;;;;5052533;28;20048;-50
2022/01/15 11:21:53;;;;;;;10.05;7.75;;;16.80;94.40;;;;;;5052556;28;20025;-49
2022/01/15 11:24:20;;;;;;;9.27;7.45;;;;;;;;;;5052616;28;20028;-49
2022/01/15 11:26:47;;;;;;;9.98;7.40;;;;;;;;;;5052579;28;20033;-49
2022/01/15 11:29:14;;;;;;;10.90;7.85;;;;;;;;;;5052379;28;20033;-49
2022/01/15 11:31:41;;;;;;;8.80;7.00;;;;;;;;;;5052099;28;20021;-49
2022/01/15 11:34:09;;;;;;;10.77;8.07;;;16.80;93.60;;;;;;5052401;28;20056;-49
2022/01/15 11:36:37;;;;;;;10.70;8.32;;;16.90;95.20;;;;;;5052468;28;20075;-50
2022/01/15 11:39:18;;;;;;;10.10;8.07;;;16.80;95.20;;;;;;5052269;28;20060;-49
2022/01/15 11:41:52;;;;;;;;;;;16.80;95.60;;;;;;5052809;28;20033;-47
2022/01/15 11:44:29;;;;;;;9.35;7.55;;;16.80;92.70;;;;;;5052387;28;19904;-48
2022/01/15 11:47:11;;;;;;;9.63;7.07;;;16.80;92.50;;;;;;5052180;28;20032;-49
2022/01/15 11:49:38;;;;;;;10.25;7.95;;;16.80;95.50;;;;;;5052320;28;20034;-49
2022/01/15 11:52:08;;;;;;;10.05;7.15;;;16.80;92.80;;;;;;5052379;28;20056;-49
2022/01/15 11:54:38;;;;;;;9.10;7.35;;;16.80;95.80;;;;;;5052169;28;20039;-48
2022/01/15 11:57:05;;;;;;;11.23;8.00;;;;;;;;;;5052152;28;20055;-49
2022/01/15 11:59:47;;;;;;;10.70;8.00;;;16.80;92.80;;;;;;5052026;28;20091;-50
2022/01/15 12:02:29;;;;;;;9.48;7.35;;;16.80;92.70;;;;;;5051799;28;20041;-47
2022/01/15 12:04:55;;;;;;;9.55;7.32;;;;;;;;;;5052378;28;20391;-46
2022/01/15 12:07:22;;;;;;;9.73;7.70;;;16.80;94.30;;;;;;5052103;28;20509;-47
2022/01/15 12:09:52;;;;;;;10.85;8.02;;;16.90;92.80;;;;;;5052325;28;20372;-47
2022/01/15 12:12:26;;;;;;;10.15;7.93;;;;;;;;;;5052320;28;20422;-46
2022/01/15 12:14:53;;;;;;;10.10;8.20;;;16.80;95.60;;;;;;5051955;28;20033;-46
2022/01/15 12:17:23;;;;;;;10.00;8.07;;;16.80;92.80;;;;;;5052264;28;20031;-46
2022/01/15 12:19:49;;;;;;;;;;;16.80;95.70;;;;;;5052494;28;20418;-48
2022/01/15 12:22:45;;;;;;;10.63;8.02;;;16.90;92.80;;;;;;5051908;28;20327;-48
2022/01/15 12:25:12;;;;;;;10.48;8.13;;;;;;;;;;5052162;28;20391;-49
2022/01/15 12:27:39;;;;;;;9.98;7.53;;;17.10;95.10;;;;;;5052127;28;20025;-50
2022/01/15 12:30:11;;;;;;;11.30;8.40;;;16.80;92.80;;;;;;5051793;28;20477;-47
2022/01/15 12:32:40;;;;;;;11.80;8.20;;;16.80;95.60;;;;;;5051739;28;20040;-50
2022/01/15 12:35:16;;;;;;;10.68;8.32;;;16.80;95.70;;;;;;5051736;28;20017;-49
2022/01/15 12:38:00;;;;;;;10.30;8.05;;;16.70;92.80;;;;;;5051077;28;20059;-47
2022/01/15 12:40:36;;;;;;;11.43;9.10;;;16.90;92.80;;;;;;5050032;28;20041;-48
2022/01/15 12:43:12;;;;;;;10.15;7.93;;;16.70;95.70;;;;;;5050161;28;20043;-47
2022/01/15 12:45:39;;;;;;;10.98;8.70;;;16.70;94.70;;;;;;5053850;28;20057;-47
2022/01/15 12:48:07;;;;;;;12.30;9.07;;;;;;;;;;5054145;28;20044;-48
2022/01/15 12:50:59;;;;;;;12.68;8.75;;;16.80;92.70;;;;;;5054154;28;20365;-49
2022/01/15 12:53:26;;;;;;;11.15;8.68;;;;;;;;;;5054868;28;20029;-48
2022/01/15 12:55:53;;;;;;;11.00;8.73;;;16.80;94.80;;;;;;5055382;28;20057;-49
2022/01/15 12:58:23;;;;;;;12.45;8.85;;;16.70;93.90;;;;;;5055553;28;20060;-48
2022/01/15 13:00:50;;;;;;;11.75;8.75;;;;;;;;;;5055545;28;20027;-49
2022/01/15 13:03:19;;;;;;;11.13;9.25;;;16.70;95.70;;;;;;5054940;28;20055;-49
2022/01/15 13:05:50;;;;;;;12.85;9.07;;;;;;;;;;5055369;28;20600;-50
2022/01/15 13:08:18;;;;;;;11.68;8.55;;;16.80;95.50;;;;;;5055206;28;20049;-47
2022/01/15 13:10:49;;;;;;;10.75;8.15;;;;;;;;;;5054996;28;20025;-49
2022/01/15 13:13:32;;;;;;;11.70;7.80;;;16.90;93.00;;;;;;5055528;28;20057;-48
2022/01/15 13:16:10;;;;;;;14.13;9.10;;;17.00;95.60;;;;;;5055497;28;20083;-49
2022/01/15 13:18:37;;;;;;;9.75;7.50;;;;;;;;;;5055074;28;20059;-49
2022/01/15 13:21:08;;;;;;;11.65;8.60;;;17.00;95.70;;;;;;5055145;28;20021;-48
2022/01/15 13:23:49;;;;;;;10.93;8.23;;;17.10;92.90;;;;;;5054891;28;20084;-48
2022/01/15 13:26:21;;;;;;;12.25;9.15;;;17.20;95.70;;;;;;5055077;28;20040;-49
2022/01/15 13:28:49;;;;;;;11.93;8.25;;;;;;;;;;5054915;28;20116;-49
2022/01/15 13:31:15;;;;;;;12.68;8.98;;;;;;;;;;5054756;28;20063;-49
2022/01/15 13:33:43;;;;;;;13.15;8.55;;;17.40;95.90;;;;;;5054854;28;20029;-50
2022/01/15 13:36:13;;;;;;;10.88;8.43;;;17.20;95.60;;;;;;5054748;28;20083;-49
2022/01/15 13:38:40;;;;;;;11.55;7.93;;;17.20;95.40;;;;;;5054894;28;20095;-50
2022/01/15 13:41:23;;;;;;;10.23;8.20;;;17.30;92.40;;;;;;5054610;28;20025;-49
2022/01/15 13:43:54;;;;;;;14.18;9.05;;;17.20;94.60;;;;;;5054351;28;20541;-47
2022/01/15 13:46:21;;;;;;;11.35;8.60;;;17.30;95.10;;;;;;5054696;28;20021;-48
2022/01/15 13:48:53;;;;;;;11.45;8.73;;;;;;;;;;5054398;28;20025;-48
2022/01/15 13:54:10;;;;;;;11.52;8.25;;;17.30;94.90;;;;;;5054444;28;20048;-49
2022/01/15 13:56:41;;;;;;;10.93;8.18;;;17.10;93.70;;;;;;5053923;28;20017;-48
2022/01/15 13:59:09;;;;;;;13.95;9.90;;;17.30;94.70;;;;;;5054041;28;20041;-47
2022/01/15 14:01:39;;;;;;;14.00;8.90;;;17.20;94.60;;;;;;5053988;28;20476;-48
2022/01/15 14:04:25;;;;;;;;;;;17.20;94.80;;;;;;5054392;28;20245;-48
2022/01/15 14:06:51;;;;;;;13.23;9.20;;;;;;;;;;5054033;28;19909;-48
2022/01/15 14:09:18;;;;;;;13.82;9.10;;;;;;;;;;5053971;28;20053;-49
2022/01/15 14:12:07;;;;;;;13.73;9.07;;;16.90;92.30;;;;;;5053971;28;20388;-48
2022/01/15 14:14:54;;;;;;;12.73;9.63;;;17.50;92.70;;;;;;5053977;28;20049;-49
2022/01/15 14:17:22;;;;;;;13.13;8.77;;;17.60;95.60;;;;;;5053883;28;20104;-49
2022/01/15 14:22:32;;;;;;;12.70;9.13;;;17.50;92.50;;;;;;5054126;28;20087;-48
2022/01/15 14:25:25;;;;;;;13.68;9.38;;;17.50;92.50;;;;;;5053590;28;20025;-49
2022/01/15 14:28:04;;;;;;;15.18;9.85;;;17.50;92.80;;;;;;5053714;28;20025;-49
2022/01/15 14:30:31;;;;;;;14.82;10.15;;;17.30;94.00;;;;;;5053632;28;20078;-49
2022/01/15 14:32:58;;;;;;;14.00;10.18;;;17.70;94.90;;;;;;5052287;28;20076;-49
2022/01/15 14:35:25;;;;;;;18.42;10.15;;;;;;;;;;5053502;28;20048;-48